Terminal Aerodrome Forecast
Issued by NWS

Current Version | Previous Version | Graphics & Text | Print | Product List | Glossary On
Versions: 1 2 3 4 5 6 7 8 9 10 11 12 13 14 15 16 17 18 19 20 21
000
FTUS41 KILN 151100 RRA
TAFLCK
TAF
KLCK 151155Z 1512/1612 00000KT 4SM BR OVC035
     FM151300 14004KT P6SM OVC035
     FM151500 15004KT P6SM OVC025
     FM151900 14007KT P6SM SCT030 OVC250
     FM160300 14005KT P6SM -RA SCT025 OVC080
      TEMPO 1604/1608 BKN025
     FM160800 14007KT 5SM BR VCSH OVC020=

USA.gov is the U.S. government's official web portal to all federal, state and local government web resources and services.